sensor_id;sensor_type;location;lat;lon;timestamp;temperature;humidity
10129;DHT22;5104;50.720;7.044;2023-02-23T00:01:40;10.10;99.90
10129;DHT22;5104;50.720;7.044;2023-02-23T00:04:09;10.10;99.90
10129;DHT22;5104;50.720;7.044;2023-02-23T00:06:36;10.10;99.90
10129;DHT22;5104;50.720;7.044;2023-02-23T00:09:05;10.10;99.90
10129;DHT22;5104;50.720;7.044;2023-02-23T00:11:38;10.10;99.90
10129;DHT22;5104;50.720;7.044;2023-02-23T00:14:05;10.10;99.90
10129;DHT22;5104;50.720;7.044;2023-02-23T00:16:35;10.20;99.90
10129;DHT22;5104;50.720;7.044;2023-02-23T00:19:02;10.10;99.90
10129;DHT22;5104;50.720;7.044;2023-02-23T00:21:33;10.20;99.90
10129;DHT22;5104;50.720;7.044;2023-02-23T00:24:02;10.10;99.90
10129;DHT22;5104;50.720;7.044;2023-02-23T00:26:32;10.10;99.90
10129;DHT22;5104;50.720;7.044;2023-02-23T00:29:00;10.10;99.90
10129;DHT22;5104;50.720;7.044;2023-02-23T00:31:28;10.10;99.90
10129;DHT22;5104;50.720;7.044;2023-02-23T00:33:57;10.10;99.90
10129;DHT22;5104;50.720;7.044;2023-02-23T00:36:26;10.10;99.90
10129;DHT22;5104;50.720;7.044;2023-02-23T00:38:56;10.10;99.90
10129;DHT22;5104;50.720;7.044;2023-02-23T00:41:26;10.10;99.90
10129;DHT22;5104;50.720;7.044;2023-02-23T00:43:54;10.00;99.90
10129;DHT22;5104;50.720;7.044;2023-02-23T00:46:23;10.00;99.90
10129;DHT22;5104;50.720;7.044;2023-02-23T00:48:53;10.00;99.90
10129;DHT22;5104;50.720;7.044;2023-02-23T00:51:22;10.00;99.90
10129;DHT22;5104;50.720;7.044;2023-02-23T00:53:54;10.00;99.90
10129;DHT22;5104;50.720;7.044;2023-02-23T00:56:22;10.00;99.90
10129;DHT22;5104;50.720;7.044;2023-02-23T00:58:49;10.00;99.90
10129;DHT22;5104;50.720;7.044;2023-02-23T01:01:17;10.00;99.90
10129;DHT22;5104;50.720;7.044;2023-02-23T01:03:47;10.00;99.90
10129;DHT22;5104;50.720;7.044;2023-02-23T01:06:15;10.00;99.90
10129;DHT22;5104;50.720;7.044;2023-02-23T01:08:45;10.00;99.90
10129;DHT22;5104;50.720;7.044;2023-02-23T01:11:16;10.00;99.90
10129;DHT22;5104;50.720;7.044;2023-02-23T01:13:46;10.00;99.90
10129;DHT22;5104;50.720;7.044;2023-02-23T01:16:15;10.00;99.90
10129;DHT22;5104;50.720;7.044;2023-02-23T01:18:46;10.00;99.90
10129;DHT22;5104;50.720;7.044;2023-02-23T01:21:15;10.00;99.90
10129;DHT22;5104;50.720;7.044;2023-02-23T01:23:43;10.00;99.90
10129;DHT22;5104;50.720;7.044;2023-02-23T01:26:18;10.00;99.90
10129;DHT22;5104;50.720;7.044;2023-02-23T01:28:48;10.00;99.90
10129;DHT22;5104;50.720;7.044;2023-02-23T01:31:15;10.00;99.90
10129;DHT22;5104;50.720;7.044;2023-02-23T01:33:42;10.00;99.90
10129;DHT22;5104;50.720;7.044;2023-02-23T01:36:09;10.00;99.90
10129;DHT22;5104;50.720;7.044;2023-02-23T01:38:40;10.00;99.90
10129;DHT22;5104;50.720;7.044;2023-02-23T01:41:09;10.00;99.90
10129;DHT22;5104;50.720;7.044;2023-02-23T01:43:55;10.00;99.90
10129;DHT22;5104;50.720;7.044;2023-02-23T01:46:22;10.00;99.90
10129;DHT22;5104;50.720;7.044;2023-02-23T01:48:51;10.00;99.90
10129;DHT22;5104;50.720;7.044;2023-02-23T01:51:22;10.00;99.90
10129;DHT22;5104;50.720;7.044;2023-02-23T01:53:55;10.00;99.90
10129;DHT22;5104;50.720;7.044;2023-02-23T01:56:25;10.00;99.90
10129;DHT22;5104;50.720;7.044;2023-02-23T01:58:56;10.00;99.90
10129;DHT22;5104;50.720;7.044;2023-02-23T02:01:24;10.00;99.90
10129;DHT22;5104;50.720;7.044;2023-02-23T02:03:56;10.00;99.90
10129;DHT22;5104;50.720;7.044;2023-02-23T02:06:25;9.90;99.90
10129;DHT22;5104;50.720;7.044;2023-02-23T02:08:55;9.90;99.90
10129;DHT22;5104;50.720;7.044;2023-02-23T02:11:23;9.90;99.90
10129;DHT22;5104;50.720;7.044;2023-02-23T02:14:04;9.90;99.90
10129;DHT22;5104;50.720;7.044;2023-02-23T02:16:59;9.90;99.90
10129;DHT22;5104;50.720;7.044;2023-02-23T02:19:58;9.90;99.90
10129;DHT22;5104;50.720;7.044;2023-02-23T02:22:57;9.90;99.90
10129;DHT22;5104;50.720;7.044;2023-02-23T02:25:38;9.90;99.90
10129;DHT22;5104;50.720;7.044;2023-02-23T02:31:42;9.90;99.90
10129;DHT22;5104;50.720;7.044;2023-02-23T02:37:46;9.90;99.90
10129;DHT22;5104;50.720;7.044;2023-02-23T02:40:20;9.90;99.90
10129;DHT22;5104;50.720;7.044;2023-02-23T02:42:59;9.90;99.90
10129;DHT22;5104;50.720;7.044;2023-02-23T02:45:39;10.00;99.90
10129;DHT22;5104;50.720;7.044;2023-02-23T02:48:14;9.90;99.90
10129;DHT22;5104;50.720;7.044;2023-02-23T02:50:46;10.00;99.90
10129;DHT22;5104;50.720;7.044;2023-02-23T02:53:21;9.90;99.90
10129;DHT22;5104;50.720;7.044;2023-02-23T02:55:51;9.90;99.90
10129;DHT22;5104;50.720;7.044;2023-02-23T02:58:21;10.00;99.90
10129;DHT22;5104;50.720;7.044;2023-02-23T03:00:51;9.90;99.90
10129;DHT22;5104;50.720;7.044;2023-02-23T03:03:38;9.90;99.90
10129;DHT22;5104;50.720;7.044;2023-02-23T03:06:27;9.90;99.90
10129;DHT22;5104;50.720;7.044;2023-02-23T03:09:24;9.90;99.90
10129;DHT22;5104;50.720;7.044;2023-02-23T03:12:18;9.90;99.90
10129;DHT22;5104;50.720;7.044;2023-02-23T03:15:16;9.90;99.90
10129;DHT22;5104;50.720;7.044;2023-02-23T03:18:16;9.90;99.90
10129;DHT22;5104;50.720;7.044;2023-02-23T03:21:10;9.90;99.90
10129;DHT22;5104;50.720;7.044;2023-02-23T03:24:05;9.90;99.90
10129;DHT22;5104;50.720;7.044;2023-02-23T03:26:55;9.90;99.90
10129;DHT22;5104;50.720;7.044;2023-02-23T03:29:46;9.80;99.90
10129;DHT22;5104;50.720;7.044;2023-02-23T03:32:35;9.80;99.90
10129;DHT22;5104;50.720;7.044;2023-02-23T03:35:25;9.70;99.90
10129;DHT22;5104;50.720;7.044;2023-02-23T03:38:17;9.70;99.90
10129;DHT22;5104;50.720;7.044;2023-02-23T03:41:04;9.70;99.90
10129;DHT22;5104;50.720;7.044;2023-02-23T03:43:54;9.70;99.90
10129;DHT22;5104;50.720;7.044;2023-02-23T03:46:41;9.60;99.90
10129;DHT22;5104;50.720;7.044;2023-02-23T03:49:30;9.70;99.90
10129;DHT22;5104;50.720;7.044;2023-02-23T03:52:19;9.70;99.90
10129;DHT22;5104;50.720;7.044;2023-02-23T03:55:09;9.60;99.90
10129;DHT22;5104;50.720;7.044;2023-02-23T03:57:58;9.70;99.90
10129;DHT22;5104;50.720;7.044;2023-02-23T04:00:47;9.70;99.90
10129;DHT22;5104;50.720;7.044;2023-02-23T04:03:35;9.70;99.90
10129;DHT22;5104;50.720;7.044;2023-02-23T04:06:24;9.70;99.90
10129;DHT22;5104;50.720;7.044;2023-02-23T04:09:10;9.70;99.90
10129;DHT22;5104;50.720;7.044;2023-02-23T04:11:57;9.80;99.90
10129;DHT22;5104;50.720;7.044;2023-02-23T04:14:50;9.80;99.90
10129;DHT22;5104;50.720;7.044;2023-02-23T04:17:20;9.80;99.90
10129;DHT22;5104;50.720;7.044;2023-02-23T04:19:50;9.80;99.90
10129;DHT22;5104;50.720;7.044;2023-02-23T04:22:17;9.70;99.90
10129;DHT22;5104;50.720;7.044;2023-02-23T04:24:45;9.70;99.90
10129;DHT22;5104;50.720;7.044;2023-02-23T04:27:12;9.70;99.90
10129;DHT22;5104;50.720;7.044;2023-02-23T04:29:38;9.70;99.90
10129;DHT22;5104;50.720;7.044;2023-02-23T04:32:06;9.70;99.90
10129;DHT22;5104;50.720;7.044;2023-02-23T04:34:34;9.70;99.90
10129;DHT22;5104;50.720;7.044;2023-02-23T04:37:01;9.70;99.90
10129;DHT22;5104;50.720;7.044;2023-02-23T04:39:28;9.70;99.90
10129;DHT22;5104;50.720;7.044;2023-02-23T04:41:55;9.70;99.90
10129;DHT22;5104;50.720;7.044;2023-02-23T04:44:22;9.70;99.90
10129;DHT22;5104;50.720;7.044;2023-02-23T04:46:49;9.70;99.90
10129;DHT22;5104;50.720;7.044;2023-02-23T04:49:16;9.70;99.90
10129;DHT22;5104;50.720;7.044;2023-02-23T04:51:44;9.70;99.90
10129;DHT22;5104;50.720;7.044;2023-02-23T04:54:12;9.70;99.90
10129;DHT22;5104;50.720;7.044;2023-02-23T04:56:39;9.70;99.90
10129;DHT22;5104;50.720;7.044;2023-02-23T04:59:06;9.70;99.90
10129;DHT22;5104;50.720;7.044;2023-02-23T05:01:33;9.60;99.90
10129;DHT22;5104;50.720;7.044;2023-02-23T05:04:01;9.60;99.90
10129;DHT22;5104;50.720;7.044;2023-02-23T05:06:29;9.60;99.90
10129;DHT22;5104;50.720;7.044;2023-02-23T05:08:58;9.60;99.90
10129;DHT22;5104;50.720;7.044;2023-02-23T05:11:26;9.60;99.90
10129;DHT22;5104;50.720;7.044;2023-02-23T05:13:53;9.50;99.90
10129;DHT22;5104;50.720;7.044;2023-02-23T05:16:20;9.50;99.90
10129;DHT22;5104;50.720;7.044;2023-02-23T05:18:47;9.50;99.90
10129;DHT22;5104;50.720;7.044;2023-02-23T05:21:14;9.50;99.90
10129;DHT22;5104;50.720;7.044;2023-02-23T05:23:41;9.50;99.90
10129;DHT22;5104;50.720;7.044;2023-02-23T05:26:11;9.50;99.90
10129;DHT22;5104;50.720;7.044;2023-02-23T05:28:40;9.50;99.90
10129;DHT22;5104;50.720;7.044;2023-02-23T05:31:08;9.60;99.90
10129;DHT22;5104;50.720;7.044;2023-02-23T05:33:36;9.50;99.90
10129;DHT22;5104;50.720;7.044;2023-02-23T05:36:08;9.50;99.90
10129;DHT22;5104;50.720;7.044;2023-02-23T05:38:35;9.50;99.90
10129;DHT22;5104;50.720;7.044;2023-02-23T05:41:04;9.50;99.90
10129;DHT22;5104;50.720;7.044;2023-02-23T05:43:33;9.50;99.90
10129;DHT22;5104;50.720;7.044;2023-02-23T05:46:05;9.50;99.90
10129;DHT22;5104;50.720;7.044;2023-02-23T05:48:32;9.50;99.90
10129;DHT22;5104;50.720;7.044;2023-02-23T05:51:01;9.50;99.90
10129;DHT22;5104;50.720;7.044;2023-02-23T05:53:28;9.50;99.90
10129;DHT22;5104;50.720;7.044;2023-02-23T05:55:55;9.50;99.90
10129;DHT22;5104;50.720;7.044;2023-02-23T05:58:22;9.50;99.90
10129;DHT22;5104;50.720;7.044;2023-02-23T06:00:51;9.50;99.90
10129;DHT22;5104;50.720;7.044;2023-02-23T06:03:18;9.50;99.90
10129;DHT22;5104;50.720;7.044;2023-02-23T06:05:49;9.60;99.90
10129;DHT22;5104;50.720;7.044;2023-02-23T06:08:16;9.60;99.90
10129;DHT22;5104;50.720;7.044;2023-02-23T06:10:43;9.60;99.90
10129;DHT22;5104;50.720;7.044;2023-02-23T06:13:10;9.60;99.90
10129;DHT22;5104;50.720;7.044;2023-02-23T06:15:38;9.60;99.90
10129;DHT22;5104;50.720;7.044;2023-02-23T06:18:06;9.60;99.90
10129;DHT22;5104;50.720;7.044;2023-02-23T06:20:34;9.50;99.90
10129;DHT22;5104;50.720;7.044;2023-02-23T06:23:02;9.50;99.90
10129;DHT22;5104;50.720;7.044;2023-02-23T06:25:30;9.50;99.90
10129;DHT22;5104;50.720;7.044;2023-02-23T06:27:57;9.50;99.90
10129;DHT22;5104;50.720;7.044;2023-02-23T06:30:23;9.50;99.90
10129;DHT22;5104;50.720;7.044;2023-02-23T06:32:51;9.50;99.90
10129;DHT22;5104;50.720;7.044;2023-02-23T06:35:19;9.50;99.90
10129;DHT22;5104;50.720;7.044;2023-02-23T06:37:46;9.50;99.90
10129;DHT22;5104;50.720;7.044;2023-02-23T06:40:13;9.50;99.90
10129;DHT22;5104;50.720;7.044;2023-02-23T06:42:40;9.50;99.90
10129;DHT22;5104;50.720;7.044;2023-02-23T06:45:08;9.50;99.90
10129;DHT22;5104;50.720;7.044;2023-02-23T06:47:35;9.50;99.90
10129;DHT22;5104;50.720;7.044;2023-02-23T06:50:02;9.50;99.90
10129;DHT22;5104;50.720;7.044;2023-02-23T06:52:31;9.50;99.90
10129;DHT22;5104;50.720;7.044;2023-02-23T06:54:58;9.50;99.90
10129;DHT22;5104;50.720;7.044;2023-02-23T06:57:25;9.50;99.90
10129;DHT22;5104;50.720;7.044;2023-02-23T06:59:52;9.50;99.90
10129;DHT22;5104;50.720;7.044;2023-02-23T07:02:19;9.50;99.90
10129;DHT22;5104;50.720;7.044;2023-02-23T07:04:46;9.50;99.90
10129;DHT22;5104;50.720;7.044;2023-02-23T07:07:13;9.50;99.90
10129;DHT22;5104;50.720;7.044;2023-02-23T07:09:41;9.50;99.90
10129;DHT22;5104;50.720;7.044;2023-02-23T07:12:09;9.50;99.90
10129;DHT22;5104;50.720;7.044;2023-02-23T07:14:36;9.50;99.90
10129;DHT22;5104;50.720;7.044;2023-02-23T07:17:04;9.50;99.90
10129;DHT22;5104;50.720;7.044;2023-02-23T07:19:32;9.50;99.90
10129;DHT22;5104;50.720;7.044;2023-02-23T07:22:02;9.50;99.90
10129;DHT22;5104;50.720;7.044;2023-02-23T07:24:30;9.50;99.90
10129;DHT22;5104;50.720;7.044;2023-02-23T07:26:59;9.50;99.90
10129;DHT22;5104;50.720;7.044;2023-02-23T07:29:27;9.50;99.90
10129;DHT22;5104;50.720;7.044;2023-02-23T07:31:54;9.50;99.90
10129;DHT22;5104;50.720;7.044;2023-02-23T07:34:21;9.50;99.90
10129;DHT22;5104;50.720;7.044;2023-02-23T07:36:52;9.60;99.90
10129;DHT22;5104;50.720;7.044;2023-02-23T07:39:21;9.60;99.90
10129;DHT22;5104;50.720;7.044;2023-02-23T07:41:48;9.60;99.90
10129;DHT22;5104;50.720;7.044;2023-02-23T07:44:17;9.60;99.90
10129;DHT22;5104;50.720;7.044;2023-02-23T07:46:44;9.70;99.90
10129;DHT22;5104;50.720;7.044;2023-02-23T07:49:11;9.70;99.90
10129;DHT22;5104;50.720;7.044;2023-02-23T07:51:39;9.80;99.90
10129;DHT22;5104;50.720;7.044;2023-02-23T07:54:09;9.80;99.90
10129;DHT22;5104;50.720;7.044;2023-02-23T07:56:36;9.80;99.90
10129;DHT22;5104;50.720;7.044;2023-02-23T07:59:03;9.90;99.90
10129;DHT22;5104;50.720;7.044;2023-02-23T08:01:31;9.90;99.90
10129;DHT22;5104;50.720;7.044;2023-02-23T08:03:58;10.00;99.90
10129;DHT22;5104;50.720;7.044;2023-02-23T08:06:25;10.00;99.90
10129;DHT22;5104;50.720;7.044;2023-02-23T08:08:52;10.00;99.90
10129;DHT22;5104;50.720;7.044;2023-02-23T08:11:19;10.00;99.90
10129;DHT22;5104;50.720;7.044;2023-02-23T08:13:46;10.10;99.90
10129;DHT22;5104;50.720;7.044;2023-02-23T08:16:13;10.20;99.90
10129;DHT22;5104;50.720;7.044;2023-02-23T08:18:42;10.20;99.90
10129;DHT22;5104;50.720;7.044;2023-02-23T08:21:09;10.20;99.90
10129;DHT22;5104;50.720;7.044;2023-02-23T08:23:36;10.20;99.90
10129;DHT22;5104;50.720;7.044;2023-02-23T08:26:03;10.20;99.90
10129;DHT22;5104;50.720;7.044;2023-02-23T08:28:30;10.30;99.90
10129;DHT22;5104;50.720;7.044;2023-02-23T08:30:57;10.30;99.90
10129;DHT22;5104;50.720;7.044;2023-02-23T08:33:24;10.30;99.90
10129;DHT22;5104;50.720;7.044;2023-02-23T08:35:53;10.40;99.90
10129;DHT22;5104;50.720;7.044;2023-02-23T08:38:20;10.40;99.90
10129;DHT22;5104;50.720;7.044;2023-02-23T08:40:47;10.50;99.90
10129;DHT22;5104;50.720;7.044;2023-02-23T08:43:14;10.60;99.90
10129;DHT22;5104;50.720;7.044;2023-02-23T08:45:41;10.60;99.90
10129;DHT22;5104;50.720;7.044;2023-02-23T08:48:07;10.70;99.90
10129;DHT22;5104;50.720;7.044;2023-02-23T08:50:34;10.80;99.90
10129;DHT22;5104;50.720;7.044;2023-02-23T08:53:03;10.80;99.90
10129;DHT22;5104;50.720;7.044;2023-02-23T08:55:31;11.00;99.90
10129;DHT22;5104;50.720;7.044;2023-02-23T08:58:00;11.10;99.90
10129;DHT22;5104;50.720;7.044;2023-02-23T09:00:27;11.10;99.90
10129;DHT22;5104;50.720;7.044;2023-02-23T09:02:54;11.10;99.90
10129;DHT22;5104;50.720;7.044;2023-02-23T09:05:20;11.10;99.90
10129;DHT22;5104;50.720;7.044;2023-02-23T09:07:48;11.10;99.90
10129;DHT22;5104;50.720;7.044;2023-02-23T09:10:19;11.10;99.90
10129;DHT22;5104;50.720;7.044;2023-02-23T09:12:49;11.00;99.90
10129;DHT22;5104;50.720;7.044;2023-02-23T09:15:16;11.00;99.90
10129;DHT22;5104;50.720;7.044;2023-02-23T09:17:43;11.10;99.90
10129;DHT22;5104;50.720;7.044;2023-02-23T09:20:15;11.20;99.90
10129;DHT22;5104;50.720;7.044;2023-02-23T09:22:43;11.20;99.90
10129;DHT22;5104;50.720;7.044;2023-02-23T09:25:14;11.10;99.90
10129;DHT22;5104;50.720;7.044;2023-02-23T09:27:44;11.10;99.90
10129;DHT22;5104;50.720;7.044;2023-02-23T09:30:13;11.10;99.90
10129;DHT22;5104;50.720;7.044;2023-02-23T09:32:43;11.10;99.90
10129;DHT22;5104;50.720;7.044;2023-02-23T09:35:10;11.00;99.90
10129;DHT22;5104;50.720;7.044;2023-02-23T09:37:37;10.90;99.90
10129;DHT22;5104;50.720;7.044;2023-02-23T09:40:04;10.90;99.90
10129;DHT22;5104;50.720;7.044;2023-02-23T09:42:39;10.70;99.90
10129;DHT22;5104;50.720;7.044;2023-02-23T09:45:22;10.70;99.90
10129;DHT22;5104;50.720;7.044;2023-02-23T09:48:04;10.80;99.90
10129;DHT22;5104;50.720;7.044;2023-02-23T09:50:33;10.90;99.90
10129;DHT22;5104;50.720;7.044;2023-02-23T09:53:05;11.00;99.90
10129;DHT22;5104;50.720;7.044;2023-02-23T09:55:33;11.00;99.90
10129;DHT22;5104;50.720;7.044;2023-02-23T09:58:05;11.10;99.90
10129;DHT22;5104;50.720;7.044;2023-02-23T10:00:41;11.10;99.90
10129;DHT22;5104;50.720;7.044;2023-02-23T10:03:18;11.20;99.90
10129;DHT22;5104;50.720;7.044;2023-02-23T10:05:52;11.30;99.90
10129;DHT22;5104;50.720;7.044;2023-02-23T10:08:27;11.40;99.90
10129;DHT22;5104;50.720;7.044;2023-02-23T10:11:02;11.40;99.90
10129;DHT22;5104;50.720;7.044;2023-02-23T10:13:36;11.40;99.90
10129;DHT22;5104;50.720;7.044;2023-02-23T10:16:12;11.30;99.90
10129;DHT22;5104;50.720;7.044;2023-02-23T10:18:46;11.40;99.90
10129;DHT22;5104;50.720;7.044;2023-02-23T10:21:22;11.50;99.90
10129;DHT22;5104;50.720;7.044;2023-02-23T10:23:58;11.60;99.90
10129;DHT22;5104;50.720;7.044;2023-02-23T10:26:31;11.60;99.90
10129;DHT22;5104;50.720;7.044;2023-02-23T10:28:59;11.70;99.90
10129;DHT22;5104;50.720;7.044;2023-02-23T10:31:33;11.70;99.90
10129;DHT22;5104;50.720;7.044;2023-02-23T10:34:05;11.60;99.90
10129;DHT22;5104;50.720;7.044;2023-02-23T10:36:37;11.70;99.90
10129;DHT22;5104;50.720;7.044;2023-02-23T10:39:07;11.70;99.90
10129;DHT22;5104;50.720;7.044;2023-02-23T10:41:35;11.80;99.90
10129;DHT22;5104;50.720;7.044;2023-02-23T10:44:04;11.90;99.90
10129;DHT22;5104;50.720;7.044;2023-02-23T10:46:38;12.10;99.90
10129;DHT22;5104;50.720;7.044;2023-02-23T10:49:06;12.20;99.90
10129;DHT22;5104;50.720;7.044;2023-02-23T10:51:38;12.50;99.90
10129;DHT22;5104;50.720;7.044;2023-02-23T10:54:39;12.60;99.90
10129;DHT22;5104;50.720;7.044;2023-02-23T10:57:10;12.50;99.90
10129;DHT22;5104;50.720;7.044;2023-02-23T10:59:58;12.70;99.90
10129;DHT22;5104;50.720;7.044;2023-02-23T11:02:28;12.70;99.90
10129;DHT22;5104;50.720;7.044;2023-02-23T11:04:58;12.80;99.90
10129;DHT22;5104;50.720;7.044;2023-02-23T11:07:27;12.80;99.90
10129;DHT22;5104;50.720;7.044;2023-02-23T11:09:55;12.70;99.90
10129;DHT22;5104;50.720;7.044;2023-02-23T11:12:24;12.80;99.90
10129;DHT22;5104;50.720;7.044;2023-02-23T11:14:55;12.70;99.90
10129;DHT22;5104;50.720;7.044;2023-02-23T11:17:29;12.50;99.90
10129;DHT22;5104;50.720;7.044;2023-02-23T11:19:58;12.20;99.90
10129;DHT22;5104;50.720;7.044;2023-02-23T11:22:31;11.80;99.90
10129;DHT22;5104;50.720;7.044;2023-02-23T11:24:59;11.60;99.90
10129;DHT22;5104;50.720;7.044;2023-02-23T11:27:28;11.60;99.90
10129;DHT22;5104;50.720;7.044;2023-02-23T11:29:57;11.70;99.90
10129;DHT22;5104;50.720;7.044;2023-02-23T11:32:28;11.80;99.90
10129;DHT22;5104;50.720;7.044;2023-02-23T11:35:23;11.80;99.90
10129;DHT22;5104;50.720;7.044;2023-02-23T11:37:53;12.00;99.90
10129;DHT22;5104;50.720;7.044;2023-02-23T11:40:23;12.00;99.90
10129;DHT22;5104;50.720;7.044;2023-02-23T11:42:54;12.20;99.90
10129;DHT22;5104;50.720;7.044;2023-02-23T11:45:22;12.30;99.90
10129;DHT22;5104;50.720;7.044;2023-02-23T11:47:52;12.30;99.90
10129;DHT22;5104;50.720;7.044;2023-02-23T11:50:24;12.30;99.90
10129;DHT22;5104;50.720;7.044;2023-02-23T11:52:56;12.30;99.90
10129;DHT22;5104;50.720;7.044;2023-02-23T11:55:25;12.20;99.90
10129;DHT22;5104;50.720;7.044;2023-02-23T11:57:53;12.20;99.90
10129;DHT22;5104;50.720;7.044;2023-02-23T12:00:32;12.20;99.90
10129;DHT22;5104;50.720;7.044;2023-02-23T12:03:00;12.20;99.90
10129;DHT22;5104;50.720;7.044;2023-02-23T12:05:31;12.00;99.90
10129;DHT22;5104;50.720;7.044;2023-02-23T12:08:02;11.90;99.90
10129;DHT22;5104;50.720;7.044;2023-02-23T12:10:36;11.70;99.90
10129;DHT22;5104;50.720;7.044;2023-02-23T12:13:11;11.60;99.90
10129;DHT22;5104;50.720;7.044;2023-02-23T12:15:44;11.50;99.90
10129;DHT22;5104;50.720;7.044;2023-02-23T12:18:21;11.40;99.90
10129;DHT22;5104;50.720;7.044;2023-02-23T12:20:56;11.40;99.90
10129;DHT22;5104;50.720;7.044;2023-02-23T12:23:28;11.30;99.90
10129;DHT22;5104;50.720;7.044;2023-02-23T12:26:00;11.20;99.90
10129;DHT22;5104;50.720;7.044;2023-02-23T12:28:33;11.00;99.90
10129;DHT22;5104;50.720;7.044;2023-02-23T12:31:10;11.00;99.90
10129;DHT22;5104;50.720;7.044;2023-02-23T12:33:46;11.00;99.90
10129;DHT22;5104;50.720;7.044;2023-02-23T12:36:22;11.00;99.90
10129;DHT22;5104;50.720;7.044;2023-02-23T12:38:55;11.00;99.90
10129;DHT22;5104;50.720;7.044;2023-02-23T12:41:31;11.10;99.90
10129;DHT22;5104;50.720;7.044;2023-02-23T12:44:02;11.20;99.90
10129;DHT22;5104;50.720;7.044;2023-02-23T12:46:36;11.30;99.90
10129;DHT22;5104;50.720;7.044;2023-02-23T12:49:14;11.40;99.90
10129;DHT22;5104;50.720;7.044;2023-02-23T12:51:47;11.50;99.90
10129;DHT22;5104;50.720;7.044;2023-02-23T12:54:17;11.60;99.90
10129;DHT22;5104;50.720;7.044;2023-02-23T12:56:56;11.70;99.90
10129;DHT22;5104;50.720;7.044;2023-02-23T12:59:42;11.70;99.90
10129;DHT22;5104;50.720;7.044;2023-02-23T13:02:13;11.70;99.90
10129;DHT22;5104;50.720;7.044;2023-02-23T13:05:06;11.60;99.90
10129;DHT22;5104;50.720;7.044;2023-02-23T13:07:46;11.50;99.90
10129;DHT22;5104;50.720;7.044;2023-02-23T13:10:23;11.50;99.90
10129;DHT22;5104;50.720;7.044;2023-02-23T13:13:01;11.40;99.90
10129;DHT22;5104;50.720;7.044;2023-02-23T13:15:43;11.30;99.90
10129;DHT22;5104;50.720;7.044;2023-02-23T13:18:18;11.40;99.90
10129;DHT22;5104;50.720;7.044;2023-02-23T13:20:50;11.10;99.90
10129;DHT22;5104;50.720;7.044;2023-02-23T13:23:25;10.90;99.90
10129;DHT22;5104;50.720;7.044;2023-02-23T13:26:00;10.90;99.90
10129;DHT22;5104;50.720;7.044;2023-02-23T13:28:41;10.70;99.90
10129;DHT22;5104;50.720;7.044;2023-02-23T13:31:19;10.50;99.90
10129;DHT22;5104;50.720;7.044;2023-02-23T13:33:47;10.30;99.90
10129;DHT22;5104;50.720;7.044;2023-02-23T13:36:15;10.10;99.90
10129;DHT22;5104;50.720;7.044;2023-02-23T13:38:54;10.00;99.90
10129;DHT22;5104;50.720;7.044;2023-02-23T13:41:30;9.90;99.90
10129;DHT22;5104;50.720;7.044;2023-02-23T13:44:06;9.90;99.90
10129;DHT22;5104;50.720;7.044;2023-02-23T13:46:43;9.90;99.90
10129;DHT22;5104;50.720;7.044;2023-02-23T13:49:22;9.80;99.90
10129;DHT22;5104;50.720;7.044;2023-02-23T13:51:55;9.60;99.90
10129;DHT22;5104;50.720;7.044;2023-02-23T13:54:30;9.40;99.90
10129;DHT22;5104;50.720;7.044;2023-02-23T13:56:59;9.30;99.90
10129;DHT22;5104;50.720;7.044;2023-02-23T13:59:29;9.10;99.90
10129;DHT22;5104;50.720;7.044;2023-02-23T14:02:16;9.20;99.90
10129;DHT22;5104;50.720;7.044;2023-02-23T14:04:51;9.00;99.90
10129;DHT22;5104;50.720;7.044;2023-02-23T14:07:25;9.10;99.90
10129;DHT22;5104;50.720;7.044;2023-02-23T14:09:57;9.20;99.90
10129;DHT22;5104;50.720;7.044;2023-02-23T14:12:32;9.20;99.90
10129;DHT22;5104;50.720;7.044;2023-02-23T14:15:26;9.30;99.90
10129;DHT22;5104;50.720;7.044;2023-02-23T14:17:56;9.40;99.90
10129;DHT22;5104;50.720;7.044;2023-02-23T14:20:39;9.40;99.90
10129;DHT22;5104;50.720;7.044;2023-02-23T14:26:15;9.50;99.90
10129;DHT22;5104;50.720;7.044;2023-02-23T14:28:45;9.60;99.90
10129;DHT22;5104;50.720;7.044;2023-02-23T14:31:20;9.80;99.90
10129;DHT22;5104;50.720;7.044;2023-02-23T14:33:58;9.80;99.90
10129;DHT22;5104;50.720;7.044;2023-02-23T14:36:35;9.90;99.90
10129;DHT22;5104;50.720;7.044;2023-02-23T14:39:07;9.90;99.90
10129;DHT22;5104;50.720;7.044;2023-02-23T14:41:42;10.00;99.90
10129;DHT22;5104;50.720;7.044;2023-02-23T14:44:13;9.90;99.90
10129;DHT22;5104;50.720;7.044;2023-02-23T14:46:55;9.90;99.90
10129;DHT22;5104;50.720;7.044;2023-02-23T14:49:26;9.80;99.90
10129;DHT22;5104;50.720;7.044;2023-02-23T14:51:55;9.70;99.90
10129;DHT22;5104;50.720;7.044;2023-02-23T14:54:27;9.70;99.90
10129;DHT22;5104;50.720;7.044;2023-02-23T14:56:59;9.60;99.90
10129;DHT22;5104;50.720;7.044;2023-02-23T14:59:36;9.60;99.90
10129;DHT22;5104;50.720;7.044;2023-02-23T15:02:10;9.50;99.90
10129;DHT22;5104;50.720;7.044;2023-02-23T15:04:38;9.50;99.90
10129;DHT22;5104;50.720;7.044;2023-02-23T15:07:05;9.60;99.90
10129;DHT22;5104;50.720;7.044;2023-02-23T15:09:37;9.50;99.90
10129;DHT22;5104;50.720;7.044;2023-02-23T15:12:17;9.50;99.90
10129;DHT22;5104;50.720;7.044;2023-02-23T15:14:47;9.50;99.90
10129;DHT22;5104;50.720;7.044;2023-02-23T15:17:17;9.60;99.90
10129;DHT22;5104;50.720;7.044;2023-02-23T15:19:47;9.70;99.90
10129;DHT22;5104;50.720;7.044;2023-02-23T15:22:24;9.70;99.90
10129;DHT22;5104;50.720;7.044;2023-02-23T15:24:53;9.70;99.90
10129;DHT22;5104;50.720;7.044;2023-02-23T15:27:28;9.80;99.90
10129;DHT22;5104;50.720;7.044;2023-02-23T15:29:56;9.80;99.90
10129;DHT22;5104;50.720;7.044;2023-02-23T15:32:25;9.80;99.90
10129;DHT22;5104;50.720;7.044;2023-02-23T15:34:53;9.80;99.90
10129;DHT22;5104;50.720;7.044;2023-02-23T15:37:32;9.90;99.90
10129;DHT22;5104;50.720;7.044;2023-02-23T15:40:05;9.90;99.90
10129;DHT22;5104;50.720;7.044;2023-02-23T15:42:36;9.90;99.90
10129;DHT22;5104;50.720;7.044;2023-02-23T15:45:13;9.90;99.90
10129;DHT22;5104;50.720;7.044;2023-02-23T15:47:42;9.90;99.90
10129;DHT22;5104;50.720;7.044;2023-02-23T15:50:16;9.90;99.90
10129;DHT22;5104;50.720;7.044;2023-02-23T15:52:47;9.80;99.90
10129;DHT22;5104;50.720;7.044;2023-02-23T15:55:21;9.80;99.90
10129;DHT22;5104;50.720;7.044;2023-02-23T15:57:54;9.80;99.90
10129;DHT22;5104;50.720;7.044;2023-02-23T16:00:27;9.80;99.90
10129;DHT22;5104;50.720;7.044;2023-02-23T16:02:59;9.70;99.90
10129;DHT22;5104;50.720;7.044;2023-02-23T16:05:29;9.70;99.90
10129;DHT22;5104;50.720;7.044;2023-02-23T16:08:05;9.70;99.90
10129;DHT22;5104;50.720;7.044;2023-02-23T16:10:44;9.70;99.90
10129;DHT22;5104;50.720;7.044;2023-02-23T16:13:16;9.70;99.90
10129;DHT22;5104;50.720;7.044;2023-02-23T16:15:46;9.70;99.90
10129;DHT22;5104;50.720;7.044;2023-02-23T16:18:15;9.70;99.90
10129;DHT22;5104;50.720;7.044;2023-02-23T16:20:46;9.70;99.90
10129;DHT22;5104;50.720;7.044;2023-02-23T16:23:25;9.60;99.90
10129;DHT22;5104;50.720;7.044;2023-02-23T16:25:54;9.60;99.90
10129;DHT22;5104;50.720;7.044;2023-02-23T16:28:27;9.60;99.90
10129;DHT22;5104;50.720;7.044;2023-02-23T16:30:57;9.50;99.90
10129;DHT22;5104;50.720;7.044;2023-02-23T16:33:27;9.60;99.90
10129;DHT22;5104;50.720;7.044;2023-02-23T16:36:11;9.50;99.90
10129;DHT22;5104;50.720;7.044;2023-02-23T16:38:40;9.50;99.90